Terminal Aerodrome Forecast
Issued by NWS

Home | Current Version | Previous Version | Text Only | Print | Product List | Glossary Off
Versions: 1 2 3 4 5 6 7 8 9 10 11 12 13 14 15 16 17 18

000
FTUS43 KABR 261726
TAFATY
TAF
KATY 261726Z 2618/2718 35019G24KT P6SM BKN013 OVC019
     FM270100 35012G19KT P6SM OVC010
     FM270600 34010KT P6SM OVC008
     FM271700 33012G19KT P6SM SCT030=

USA.gov is the U.S. government's official web portal to all federal, state and local government web resources and services.